Terminal Aerodrome Forecast
Issued by NWS

Current Version | Previous Version | Text Only | Print | Product List | Glossary On
Versions: 1 2 3 4 5 6 7 8 9 10 11 12 13 14 15 16 17 18 19
000
FTUS42 KMLB 070532
TAFFPR
TAF
KFPR 070532Z 0706/0806 28004KT P6SM FEW012 SCT070
     FM071400 30006KT P6SM FEW030
     FM071800 31008KT P6SM FEW040
     FM072000 02008KT P6SM FEW045
     FM080300 24003KT P6SM SKC=

USA.gov is the U.S. government's official web portal to all federal, state and local government web resources and services.